createdAt,value
2023-04-10T00:01:49.430Z,1.60
2023-04-10T00:04:18.728Z,1.50
2023-04-10T00:06:49.304Z,1.80
2023-04-10T00:09:17.687Z,1.63
2023-04-10T00:11:47.504Z,1.80
2023-04-10T00:14:15.834Z,1.53
2023-04-10T00:16:44.150Z,1.50
2023-04-10T00:19:12.842Z,1.47
2023-04-10T00:21:41.286Z,1.60
2023-04-10T00:24:09.657Z,1.90
2023-04-10T00:26:38.295Z,1.60
2023-04-10T00:29:08.341Z,1.30
2023-04-10T00:31:36.769Z,1.40
2023-04-10T00:34:05.072Z,1.47
2023-04-10T00:36:33.453Z,1.40
2023-04-10T00:39:01.879Z,1.30
2023-04-10T00:41:30.818Z,1.43
2023-04-10T00:44:00.212Z,1.40
2023-04-10T00:46:30.566Z,1.50
2023-04-10T00:48:59.558Z,1.30
2023-04-10T00:51:28.005Z,1.23
2023-04-10T00:53:56.624Z,1.30
2023-04-10T00:56:26.188Z,1.10
2023-04-10T00:58:54.570Z,1.27
2023-04-10T01:01:23.111Z,1.30
2023-04-10T01:03:54.324Z,1.50
2023-04-10T01:06:32.204Z,1.20
2023-04-10T01:09:09.516Z,1.30
2023-04-10T01:11:47.748Z,1.40
2023-04-10T01:14:28.776Z,1.40
2023-04-10T01:17:07.133Z,1.13
2023-04-10T01:20:01.030Z,1.30
2023-04-10T01:22:37.447Z,1.20
2023-04-10T01:25:31.413Z,1.27
2023-04-10T01:28:10.847Z,1.40
2023-04-10T01:30:41.929Z,1.40
2023-04-10T01:33:13.862Z,1.20
2023-04-10T01:35:45.247Z,1.33
2023-04-10T01:38:14.898Z,1.17
2023-04-10T01:40:50.239Z,1.20
2023-04-10T01:43:20.888Z,1.33
2023-04-10T01:45:52.785Z,1.30
2023-04-10T01:48:21.854Z,1.10
2023-04-10T01:50:51.003Z,1.20
2023-04-10T01:53:19.762Z,1.20
2023-04-10T01:55:48.678Z,1.40
2023-04-10T01:58:17.613Z,1.27
2023-04-10T02:00:45.982Z,1.20
2023-04-10T02:03:15.874Z,1.30
2023-04-10T02:05:56.346Z,1.40
2023-04-10T02:08:32.573Z,1.07
2023-04-10T02:11:06.189Z,1.10
2023-04-10T02:13:36.875Z,1.40
2023-04-10T02:16:08.376Z,1.10
2023-04-10T02:18:39.358Z,1.00
2023-04-10T02:21:09.577Z,1.17
2023-04-10T02:23:38.411Z,1.00
2023-04-10T02:26:10.494Z,1.00
2023-04-10T02:28:40.296Z,1.00
2023-04-10T02:31:09.092Z,1.10
2023-04-10T02:33:38.838Z,1.17
2023-04-10T02:36:08.078Z,1.10
2023-04-10T02:38:36.573Z,1.17
2023-04-10T02:41:05.027Z,1.20
2023-04-10T02:43:33.443Z,1.03
2023-04-10T02:46:02.009Z,1.10
2023-04-10T02:48:30.389Z,1.10
2023-04-10T02:51:00.595Z,1.20
2023-04-10T02:53:28.983Z,1.20
2023-04-10T02:55:57.337Z,1.10
2023-04-10T02:58:25.722Z,1.30
2023-04-10T03:00:54.128Z,1.10
2023-04-10T03:03:22.767Z,1.10
2023-04-10T03:05:51.327Z,1.20
2023-04-10T03:08:21.244Z,1.10
2023-04-10T03:10:49.646Z,1.30
2023-04-10T03:13:18.373Z,1.17
2023-04-10T03:15:47.052Z,1.23
2023-04-10T03:18:15.689Z,1.00
2023-04-10T03:20:45.122Z,1.13
2023-04-10T03:23:13.797Z,1.20
2023-04-10T03:25:43.512Z,1.30
2023-04-10T03:28:11.951Z,1.10
2023-04-10T03:30:40.279Z,1.20
2023-04-10T03:33:08.599Z,1.10
2023-04-10T03:35:37.030Z,1.13
2023-04-10T03:38:05.388Z,1.20
2023-04-10T03:40:34.572Z,1.30
2023-04-10T03:43:04.432Z,1.20
2023-04-10T03:45:32.812Z,1.37
2023-04-10T03:48:01.261Z,1.20
2023-04-10T03:50:29.674Z,1.10
2023-04-10T03:52:58.047Z,1.30
2023-04-10T03:55:26.385Z,1.30
2023-04-10T03:57:54.753Z,1.40
2023-04-10T04:00:26.717Z,1.40
2023-04-10T04:02:55.490Z,1.10
2023-04-10T04:05:24.333Z,1.47
2023-04-10T04:07:52.686Z,1.50
2023-04-10T04:10:21.005Z,1.30
2023-04-10T04:12:49.554Z,1.30
2023-04-10T04:15:18.246Z,1.30
2023-04-10T04:17:48.357Z,1.40
2023-04-10T04:20:16.991Z,1.20
2023-04-10T04:22:46.419Z,1.20
2023-04-10T04:25:15.012Z,1.40
2023-04-10T04:27:43.392Z,1.30
2023-04-10T04:30:13.057Z,1.20
2023-04-10T04:32:41.468Z,1.50
2023-04-10T04:35:12.131Z,1.40
2023-04-10T04:37:40.927Z,1.53
2023-04-10T04:40:11.500Z,1.57
2023-04-10T04:42:39.845Z,1.47
2023-04-10T04:45:09.794Z,1.47
2023-04-10T04:47:38.174Z,1.70
2023-04-10T04:50:08.150Z,1.80
2023-04-10T04:52:37.917Z,4.30
2023-04-10T04:55:07.368Z,5.10
2023-04-10T04:57:35.792Z,8.40
2023-04-10T05:00:04.256Z,8.87
2023-04-10T05:02:32.702Z,10.43
2023-04-10T05:05:01.379Z,9.13
2023-04-10T05:07:29.709Z,6.30
2023-04-10T05:09:59.446Z,3.80
2023-04-10T05:12:27.869Z,2.90
2023-04-10T05:14:56.272Z,2.20
2023-04-10T05:17:24.698Z,1.77
2023-04-10T05:19:52.967Z,1.80
2023-04-10T05:22:21.356Z,1.80
2023-04-10T05:24:49.790Z,1.70
2023-04-10T05:27:20.481Z,1.57
2023-04-10T05:29:48.758Z,1.50
2023-04-10T05:32:17.191Z,1.47
2023-04-10T05:34:45.633Z,1.57
2023-04-10T05:37:14.385Z,1.43
2023-04-10T05:39:42.921Z,1.40
2023-04-10T05:42:11.707Z,1.30
2023-04-10T05:44:41.656Z,1.50
2023-04-10T05:47:10.067Z,1.47
2023-04-10T05:49:38.457Z,1.57
2023-04-10T05:52:06.854Z,1.30
2023-04-10T05:54:35.271Z,1.20
2023-04-10T05:57:03.664Z,1.30
2023-04-10T05:59:32.028Z,1.43
2023-04-10T06:02:01.906Z,1.33
2023-04-10T06:04:30.616Z,1.50
2023-04-10T06:06:59.885Z,1.70
2023-04-10T06:09:28.342Z,1.60
2023-04-10T06:11:56.744Z,1.80
2023-04-10T06:14:25.227Z,1.50
2023-04-10T06:16:53.929Z,1.50
2023-04-10T06:19:23.723Z,1.60
2023-04-10T06:21:54.385Z,1.53
2023-04-10T06:24:23.162Z,1.40
2023-04-10T06:26:51.495Z,1.57
2023-04-10T06:29:20.382Z,1.30
2023-04-10T06:31:49.037Z,1.33
2023-04-10T06:34:17.382Z,1.43
2023-04-10T06:36:47.195Z,1.27
2023-04-10T06:39:16.363Z,1.53
2023-04-10T06:41:44.979Z,2.43
2023-04-10T06:44:13.285Z,2.00
2023-04-10T06:46:41.698Z,2.20
2023-04-10T06:49:10.096Z,1.80
2023-04-10T06:51:38.419Z,2.20
2023-04-10T06:54:08.209Z,1.60
2023-04-10T06:56:36.706Z,1.73
2023-04-10T06:59:05.039Z,1.70
2023-04-10T07:01:33.539Z,1.67
2023-04-10T07:04:01.976Z,1.50
2023-04-10T07:06:31.437Z,1.40
2023-04-10T07:08:59.983Z,1.30
2023-04-10T07:11:29.796Z,1.70
2023-04-10T07:13:58.891Z,1.70
2023-04-10T07:16:27.726Z,1.60
2023-04-10T07:18:56.992Z,1.43
2023-04-10T07:21:27.255Z,1.60
2023-04-10T07:23:55.732Z,1.30
2023-04-10T07:26:24.156Z,1.73
2023-04-10T07:28:54.179Z,1.40
2023-04-10T07:31:22.870Z,1.50
2023-04-10T07:33:51.989Z,1.50
2023-04-10T07:36:20.334Z,1.57
2023-04-10T07:38:48.714Z,2.23
2023-04-10T07:41:17.182Z,2.30
2023-04-10T07:43:46.220Z,1.90
2023-04-10T07:46:16.349Z,1.97
2023-04-10T07:48:47.285Z,1.70
2023-04-10T07:51:15.791Z,1.90
2023-04-10T07:53:44.153Z,2.00
2023-04-10T07:56:18.175Z,1.70
2023-04-10T07:58:46.816Z,1.50
2023-04-10T08:01:17.177Z,2.10
2023-04-10T08:03:47.731Z,2.40
2023-04-10T08:06:16.592Z,2.27
2023-04-10T08:08:44.978Z,3.90
2023-04-10T08:11:25.456Z,2.87
2023-04-10T08:13:54.599Z,4.00
2023-04-10T08:16:26.603Z,4.43
2023-04-10T08:18:56.863Z,4.20
2023-04-10T08:21:26.166Z,4.00
2023-04-10T08:23:55.180Z,3.40
2023-04-10T08:26:23.692Z,2.90
2023-04-10T08:28:53.851Z,2.53
2023-04-10T08:31:23.666Z,2.20
2023-04-10T08:33:53.804Z,2.30
2023-04-10T08:36:22.738Z,2.30
2023-04-10T08:38:51.143Z,2.30
2023-04-10T08:41:20.948Z,2.97
2023-04-10T08:43:50.085Z,3.77
2023-04-10T08:46:18.699Z,3.70
2023-04-10T08:48:49.571Z,3.60
2023-04-10T08:51:26.382Z,3.03
2023-04-10T08:54:00.299Z,2.20
2023-04-10T08:56:28.981Z,2.63
2023-04-10T08:58:57.601Z,2.50
2023-04-10T09:01:26.911Z,2.10
2023-04-10T09:03:55.714Z,2.17
2023-04-10T09:06:26.029Z,2.13
2023-04-10T09:08:54.416Z,2.37
2023-04-10T09:11:22.858Z,2.50
2023-04-10T09:13:51.145Z,2.50
2023-04-10T09:16:19.703Z,3.00
2023-04-10T09:18:49.913Z,3.63
2023-04-10T09:21:20.119Z,3.70
2023-04-10T09:23:50.888Z,2.90
2023-04-10T09:26:27.108Z,2.70
2023-04-10T09:29:00.504Z,2.43
2023-04-10T09:31:33.571Z,2.50
2023-04-10T09:34:14.240Z,2.40
2023-04-10T09:36:43.144Z,2.20
2023-04-10T09:39:13.711Z,7.50
2023-04-10T09:41:52.562Z,5.20
2023-04-10T09:44:31.068Z,3.63
2023-04-10T09:46:59.840Z,2.63
2023-04-10T09:49:28.375Z,3.83
2023-04-10T09:51:56.772Z,8.03
2023-04-10T09:54:38.956Z,5.67
2023-04-10T09:57:08.399Z,3.63
2023-04-10T09:59:41.804Z,4.40
2023-04-10T10:02:11.606Z,3.13
2023-04-10T10:04:43.028Z,2.72
2023-04-10T10:07:11.536Z,2.42
2023-04-10T10:09:42.275Z,2.20
2023-04-10T10:12:12.734Z,2.75
2023-04-10T10:14:48.885Z,3.53
2023-04-10T10:17:21.242Z,3.50
2023-04-10T10:19:58.605Z,3.08
2023-04-10T10:22:28.849Z,2.13
2023-04-10T10:25:00.587Z,4.95
2023-04-10T10:27:32.110Z,6.85
2023-04-10T10:30:08.426Z,4.68
2023-04-10T10:32:47.017Z,7.93
2023-04-10T10:35:15.573Z,6.53
2023-04-10T10:37:46.122Z,6.00
2023-04-10T10:40:19.172Z,5.47
2023-04-10T10:42:54.248Z,4.28
2023-04-10T10:45:28.045Z,3.78
2023-04-10T10:47:56.998Z,2.78
2023-04-10T10:50:25.436Z,2.28
2023-04-10T10:52:57.335Z,2.50
2023-04-10T10:55:36.860Z,2.60
2023-04-10T10:58:08.989Z,2.47
2023-04-10T11:01:08.437Z,2.10
2023-04-10T11:03:38.782Z,2.70
2023-04-10T11:06:09.849Z,2.20
2023-04-10T11:08:45.845Z,2.30
2023-04-10T11:11:17.981Z,2.15
2023-04-10T11:14:18.473Z,1.88
2023-04-10T11:16:50.187Z,1.90
2023-04-10T11:19:22.685Z,1.80
2023-04-10T11:22:07.698Z,1.67
2023-04-10T11:24:54.290Z,1.50
2023-04-10T11:27:49.575Z,1.50
2023-04-10T11:30:28.599Z,1.60
2023-04-10T11:32:57.588Z,1.60
2023-04-10T11:35:28.303Z,1.52
2023-04-10T11:38:27.115Z,2.00
2023-04-10T11:41:01.768Z,2.97
2023-04-10T11:43:32.839Z,1.85
2023-04-10T11:46:03.160Z,1.50
2023-04-10T11:48:32.068Z,2.90
2023-04-10T11:51:02.224Z,2.13
2023-04-10T11:53:31.068Z,1.80
2023-04-10T11:55:59.677Z,1.77
2023-04-10T11:58:30.505Z,1.50
2023-04-10T12:01:02.188Z,1.80
2023-04-10T12:03:41.464Z,2.47
2023-04-10T12:06:12.781Z,1.73
2023-04-10T12:08:42.688Z,1.70
2023-04-10T12:11:13.038Z,2.00
2023-04-10T12:13:41.846Z,2.05
2023-04-10T12:16:12.706Z,1.75
2023-04-10T12:18:42.009Z,2.30
2023-04-10T12:21:10.742Z,1.90
2023-04-10T12:23:40.329Z,1.48
2023-04-10T12:26:11.925Z,1.73
2023-04-10T12:28:43.165Z,1.52
2023-04-10T12:31:13.130Z,1.60
2023-04-10T12:33:41.538Z,1.40
2023-04-10T12:36:22.522Z,1.48
2023-04-10T12:38:53.063Z,1.55
2023-04-10T12:41:27.962Z,1.40
2023-04-10T12:44:08.943Z,1.17
2023-04-10T12:46:42.451Z,1.50
2023-04-10T12:49:13.607Z,1.70
2023-04-10T12:51:46.799Z,1.58
2023-04-10T12:54:29.949Z,2.05
2023-04-10T12:56:59.162Z,1.80
2023-04-10T12:59:28.129Z,1.83
2023-04-10T13:01:58.560Z,1.25
2023-04-10T13:04:28.940Z,1.30
2023-04-10T13:06:57.342Z,1.25
2023-04-10T13:09:25.861Z,1.23
2023-04-10T13:11:54.224Z,1.60
2023-04-10T13:14:22.798Z,1.20
2023-04-10T13:16:51.098Z,1.30
2023-04-10T13:19:20.859Z,1.40
2023-04-10T13:21:50.796Z,1.10
2023-04-10T13:24:19.181Z,1.30
2023-04-10T13:26:47.552Z,1.30
2023-04-10T13:29:15.924Z,1.40
2023-04-10T13:31:44.287Z,1.55
2023-04-10T13:34:12.717Z,1.50
2023-04-10T13:36:42.652Z,1.40
2023-04-10T13:39:11.116Z,1.35
2023-04-10T13:41:39.538Z,1.10
2023-04-10T13:44:07.942Z,1.30
2023-04-10T13:46:36.360Z,1.58
2023-04-10T13:49:04.735Z,1.50
2023-04-10T13:51:33.158Z,1.30
2023-04-10T13:54:04.826Z,1.50
2023-04-10T13:56:33.178Z,1.45
2023-04-10T13:59:02.133Z,1.60
2023-04-10T14:01:30.886Z,1.50
2023-04-10T14:03:59.545Z,1.52
2023-04-10T14:06:28.551Z,1.73
2023-04-10T14:08:57.115Z,1.60
2023-04-10T14:11:27.639Z,1.13
2023-04-10T14:13:56.211Z,1.20
2023-04-10T14:16:24.875Z,1.30
2023-04-10T14:18:53.805Z,1.58
2023-04-10T14:21:22.725Z,1.40
2023-04-10T14:23:51.283Z,1.58
2023-04-10T14:26:19.714Z,1.80
2023-04-10T14:28:49.644Z,1.83
2023-04-10T14:31:17.953Z,1.50
2023-04-10T14:33:46.675Z,1.30
2023-04-10T14:36:15.265Z,1.40
2023-04-10T14:38:43.694Z,1.20
2023-04-10T14:41:12.583Z,1.50
2023-04-10T14:43:41.453Z,1.40
2023-04-10T14:46:14.993Z,1.25
2023-04-10T14:48:44.500Z,1.30
2023-04-10T14:51:13.330Z,1.40
2023-04-10T14:53:41.751Z,1.17
2023-04-10T14:56:14.139Z,1.45
2023-04-10T14:58:42.665Z,1.48
2023-04-10T15:01:13.575Z,1.80
2023-04-10T15:03:42.201Z,1.80
2023-04-10T15:06:10.740Z,1.50
2023-04-10T15:08:39.120Z,1.35
2023-04-10T15:11:07.828Z,1.35
2023-04-10T15:13:37.823Z,1.33
2023-04-10T15:16:08.141Z,1.70
2023-04-10T15:18:38.024Z,1.50
2023-04-10T15:21:07.337Z,1.70
2023-04-10T15:23:35.866Z,1.77
2023-04-10T15:26:04.337Z,1.40
2023-04-10T15:28:32.874Z,1.50
2023-04-10T15:31:01.382Z,1.50
2023-04-10T15:33:29.827Z,3.00
2023-04-10T15:35:59.755Z,2.00
2023-04-10T15:38:28.927Z,1.65
2023-04-10T15:40:57.468Z,2.13
2023-04-10T15:43:26.008Z,2.40
2023-04-10T15:45:54.406Z,2.90
2023-04-10T15:48:24.774Z,1.73
2023-04-10T15:50:53.166Z,1.90
2023-04-10T15:53:23.045Z,1.70
2023-04-10T15:55:51.466Z,1.80
2023-04-10T15:58:20.266Z,1.77
2023-04-10T16:00:48.777Z,1.60
2023-04-10T16:03:17.689Z,1.67
2023-04-10T16:05:46.421Z,1.70
2023-04-10T16:08:14.965Z,1.83
2023-04-10T16:10:44.921Z,1.60
2023-04-10T16:13:13.567Z,1.90
2023-04-10T16:15:41.932Z,2.05
2023-04-10T16:18:10.531Z,2.10
2023-04-10T16:20:38.991Z,2.00
2023-04-10T16:23:07.678Z,1.77
2023-04-10T16:25:36.132Z,2.70
2023-04-10T16:28:08.107Z,2.30
2023-04-10T16:30:37.290Z,3.85
2023-04-10T16:33:05.757Z,3.00
2023-04-10T16:35:35.964Z,2.30
2023-04-10T16:38:05.434Z,2.33
2023-04-10T16:40:35.018Z,2.17
2023-04-10T16:43:04.263Z,2.47
2023-04-10T16:45:34.858Z,2.97
2023-04-10T16:48:04.400Z,2.70
2023-04-10T16:50:36.324Z,2.22
2023-04-10T16:53:05.275Z,2.20
2023-04-10T16:55:33.769Z,3.00
2023-04-10T16:58:02.116Z,2.90
2023-04-10T17:00:30.931Z,2.88
2023-04-10T17:03:01.875Z,2.72
2023-04-10T17:05:36.146Z,2.53
2023-04-10T17:08:05.528Z,2.60
2023-04-10T17:10:33.968Z,2.35
2023-04-10T17:13:02.557Z,3.08
2023-04-10T17:15:30.946Z,2.55
2023-04-10T17:17:59.392Z,1.90
2023-04-10T17:20:30.917Z,1.75
2023-04-10T17:22:59.278Z,1.92
2023-04-10T17:25:27.812Z,2.30
2023-04-10T17:27:56.171Z,3.10
2023-04-10T17:30:25.114Z,3.72
2023-04-10T17:32:54.539Z,4.10
2023-04-10T17:35:23.234Z,3.15
2023-04-10T17:37:53.132Z,3.33
2023-04-10T17:40:22.045Z,3.53
2023-04-10T17:42:50.445Z,3.22
2023-04-10T17:45:19.082Z,3.42
2023-04-10T17:47:47.464Z,3.67
2023-04-10T17:50:16.199Z,4.00
2023-04-10T17:52:44.616Z,5.18
2023-04-10T17:55:20.692Z,5.47
2023-04-10T17:57:49.723Z,4.18
2023-04-10T18:00:20.654Z,5.82
2023-04-10T18:02:49.268Z,5.50
2023-04-10T18:05:17.886Z,8.05
2023-04-10T18:07:47.342Z,13.13
2023-04-10T18:10:17.329Z,11.13
2023-04-10T18:12:45.835Z,9.30
2023-04-10T18:15:15.537Z,8.55
2023-04-10T18:17:43.890Z,8.43
2023-04-10T18:20:12.759Z,9.35
2023-04-10T18:22:41.073Z,13.40
2023-04-10T18:25:10.137Z,12.93
2023-04-10T18:27:51.367Z,13.13
2023-04-10T18:30:21.063Z,11.70
2023-04-10T18:32:52.074Z,9.55
2023-04-10T18:35:20.827Z,10.43
2023-04-10T18:37:49.172Z,11.20
2023-04-10T18:40:17.798Z,12.18
2023-04-10T18:42:47.601Z,13.57
2023-04-10T18:45:16.221Z,10.35
2023-04-10T18:47:44.581Z,9.77
2023-04-10T18:50:13.114Z,9.25
2023-04-10T18:52:41.512Z,9.90
2023-04-10T18:55:10.380Z,9.52
2023-04-10T18:57:38.762Z,9.65
2023-04-10T19:00:11.537Z,8.77
2023-04-10T19:02:40.077Z,7.72
2023-04-10T19:05:10.518Z,7.80
2023-04-10T19:07:38.854Z,8.55
2023-04-10T19:10:08.372Z,9.20
2023-04-10T19:12:37.990Z,11.23
2023-04-10T19:15:09.767Z,14.77
2023-04-10T19:17:38.190Z,13.68
2023-04-10T19:20:08.310Z,12.27
2023-04-10T19:22:36.717Z,10.40
2023-04-10T19:25:05.613Z,11.35
2023-04-10T19:27:33.970Z,8.07
2023-04-10T19:30:02.304Z,6.45
2023-04-10T19:32:32.132Z,5.20
2023-04-10T19:35:00.497Z,4.55
2023-04-10T19:37:31.346Z,5.20
2023-04-10T19:39:59.695Z,4.80
2023-04-10T19:42:28.061Z,5.10
2023-04-10T19:44:56.432Z,5.47
2023-04-10T19:47:25.028Z,5.50
2023-04-10T19:49:54.847Z,4.50
2023-04-10T19:52:23.260Z,4.30
2023-04-10T19:54:51.558Z,3.70
2023-04-10T19:57:19.996Z,3.77
2023-04-10T19:59:48.395Z,3.30
2023-04-10T20:02:17.070Z,3.00
2023-04-10T20:04:48.014Z,3.40
2023-04-10T20:07:18.446Z,3.37
2023-04-10T20:09:46.809Z,3.70
2023-04-10T20:12:16.238Z,3.30
2023-04-10T20:14:45.196Z,3.50
2023-04-10T20:17:13.757Z,3.10
2023-04-10T20:19:42.208Z,3.30
2023-04-10T20:22:10.850Z,2.87
2023-04-10T20:24:40.514Z,3.17
2023-04-10T20:27:09.086Z,3.20
2023-04-10T20:29:37.416Z,3.33
2023-04-10T20:32:07.066Z,3.47
2023-04-10T20:34:36.046Z,3.87
2023-04-10T20:37:04.730Z,3.87
2023-04-10T20:39:33.669Z,3.20
2023-04-10T20:42:03.552Z,3.17
2023-04-10T20:44:31.882Z,3.83
2023-04-10T20:47:00.167Z,3.37
2023-04-10T20:49:28.615Z,3.67
2023-04-10T20:51:56.952Z,3.50
2023-04-10T20:54:27.367Z,3.80
2023-04-10T20:56:56.592Z,3.93
2023-04-10T20:59:26.543Z,4.07
2023-04-10T21:01:55.244Z,3.93
2023-04-10T21:04:23.588Z,4.00
2023-04-10T21:06:52.214Z,3.97
2023-04-10T21:09:21.005Z,4.03
2023-04-10T21:11:49.491Z,3.90
2023-04-10T21:14:18.907Z,4.13
2023-04-10T21:16:49.731Z,5.07
2023-04-10T21:19:19.078Z,5.00
2023-04-10T21:21:48.184Z,5.03
2023-04-10T21:24:18.056Z,4.97
2023-04-10T21:26:47.721Z,4.43
2023-04-10T21:29:16.300Z,4.40
2023-04-10T21:31:45.435Z,3.77
2023-04-10T21:34:15.259Z,3.40
2023-04-10T21:36:43.839Z,3.37
2023-04-10T21:39:12.449Z,3.10
2023-04-10T21:41:41.498Z,3.10
2023-04-10T21:44:10.432Z,3.30
2023-04-10T21:46:39.097Z,3.40
2023-04-10T21:49:08.533Z,3.10
2023-04-10T21:51:41.374Z,3.57
2023-04-10T21:54:09.873Z,3.10
2023-04-10T21:56:40.960Z,3.20
2023-04-10T21:59:09.543Z,3.10
2023-04-10T22:01:38.834Z,2.80
2023-04-10T22:04:08.784Z,3.03
2023-04-10T22:06:39.977Z,3.60
2023-04-10T22:09:09.802Z,3.37
2023-04-10T22:11:43.108Z,3.47
2023-04-10T22:14:17.963Z,3.20
2023-04-10T22:16:48.161Z,3.00
2023-04-10T22:19:16.752Z,3.00
2023-04-10T22:21:46.771Z,2.80
2023-04-10T22:24:15.609Z,2.70
2023-04-10T22:26:46.301Z,2.70
2023-04-10T22:29:15.247Z,2.90
2023-04-10T22:31:45.046Z,2.60
2023-04-10T22:34:13.677Z,2.93
2023-04-10T22:36:42.667Z,3.40
2023-04-10T22:39:13.410Z,3.27
2023-04-10T22:41:43.071Z,3.07
2023-04-10T22:44:11.690Z,3.07
2023-04-10T22:46:40.424Z,2.90
2023-04-10T22:49:09.131Z,3.20
2023-04-10T22:51:38.036Z,3.10
2023-04-10T22:54:07.286Z,3.10
2023-04-10T22:56:37.778Z,2.90
2023-04-10T22:59:06.967Z,3.20
2023-04-10T23:01:36.507Z,3.20
2023-04-10T23:04:05.714Z,2.80
2023-04-10T23:06:34.192Z,2.77
2023-04-10T23:09:03.387Z,2.87
2023-04-10T23:11:31.627Z,3.10
2023-04-10T23:14:02.114Z,2.70
2023-04-10T23:16:30.562Z,2.90
2023-04-10T23:18:58.874Z,2.80
2023-04-10T23:21:27.728Z,3.00
2023-04-10T23:23:56.169Z,2.90
2023-04-10T23:26:24.623Z,2.93
2023-04-10T23:28:53.149Z,2.77
2023-04-10T23:31:23.225Z,2.83
2023-04-10T23:33:51.552Z,2.53
2023-04-10T23:36:19.915Z,2.80
2023-04-10T23:38:48.310Z,2.70
2023-04-10T23:41:17.428Z,2.60
2023-04-10T23:43:46.333Z,2.60
2023-04-10T23:46:15.486Z,3.00
2023-04-10T23:48:46.039Z,2.60
2023-04-10T23:51:14.936Z,2.07
2023-04-10T23:53:44.744Z,2.37
2023-04-10T23:56:13.123Z,2.40
2023-04-10T23:58:41.542Z,2.27
